Weather observations for the past three days for
Gustavus, Gustavus Airport
Imperial (Metric)
Date Time (akdt) Wind (mph) Vis. (mi.) Weather Sky Cond. Temperature (ºF) Relative Humidity Wind Chill (°F) Heat Index (°F) Pressure Precipitation (in)
Air Dwpt 6 hour altimeter (in) sea level (mb) 1 hr 3 hr 6 hr
Max. Min.
06 14:56 SW 5 10.00 Overcast OVC036 57.9 53.1 84% 30.07 1018.3
06 13:56 SW 5 10.00 Overcast SCT008 OVC034 57.9 54 87% 30.08 1018.4
06 12:56 Calm 10.00 Overcast OVC032 57 53.1 87% 30.08 1018.6
06 10:56 NW 3 10.00 Overcast OVC012 55 53.1 93% 30.09 1018.7
06 09:56 Calm 10.00 Overcast OVC006 54 52 54 53.1 93% 30.09 1018.9
06 08:56 Calm 10.00 Overcast OVC004 53.1 52 96% 30.09 1018.9
06 07:56 Calm 10.00 Overcast OVC004 53.1 52 96% 30.09 1018.8
06 06:56 N 3 5.00 Fog/Mist OVC004 53.1 52 96% 30.09 1018.9
06 05:56 Calm 10.00 Overcast OVC008 53.1 52 96% 30.09 1018.8
06 04:56 Calm 10.00 Overcast OVC006 53.1 52 96% 30.09 1018.9
06 03:56 Calm 10.00 Overcast OVC004 52 52 55.9 52 100% 30.09 1018.9
06 02:56 Calm 1.50 Fog/Mist OVC002 52 52 100% 30.09 1018.9
06 01:56 NW 3 10.00 Overcast FEW002 OVC006 52 51.1 97% 30.09 1018.9
06 00:56 Calm 10.00 Overcast OVC006 52 52 100% 30.09 1018.9
05 23:56 W 3 1.00 Fog/Mist OVC003 53.1 52 96% 30.09 1019.0
05 22:56 S 3 9.00 Overcast BKN006 OVC013 55 54 96% 30.08 1018.7
05 21:56 Calm 10.00 Overcast OVC006 55.9 55 62.1 55.9 97% 30.09 1018.7
05 20:56 Calm 10.00 Overcast BKN008 BKN013 OVC020 55.9 55 97% 30.09 1018.7
05 19:56 Calm 10.00 Overcast OVC010 57 55 93% 30.09 1018.7
05 18:56 Calm 10.00 Mostly Cloudy BKN012 59 55 87% 30.08 1018.6
05 17:56 W 6 10.00 Fair CLR 60.1 54 80% 30.08 1018.5
05 16:56 SW 8 10.00 Fair CLR 61 53.1 75% 30.08 1018.5
05 15:56 SW 7 10.00 Fair CLR 60.1 52 62.1 55 75% 30.09 1019.0
05 14:56 SW 7 10.00 Fair CLR 60.1 52 75% 30.1 1019.0
05 13:56 S 8 10.00 Fair CLR 60.1 52 75% 30.1 1019.2
05 12:56 NW 5 10.00 Mostly Cloudy BKN019 60.1 51.1 72% 30.11 1019.4
05 11:56 N 6 10.00 Overcast OVC019 57.9 50 75% 30.11 1019.5
05 09:56 Calm 10.00 Overcast SCT014 OVC023 55 51.1 55 45 87% 30.12 1020.0
05 08:56 Calm 10.00 Overcast OVC021 54 51.1 90% 30.12 1019.8
05 07:56 Calm 10.00 Overcast OVC023 53.1 52 96% 30.12 1019.8
05 06:56 Calm 10.00 Overcast OVC018 50 48.9 96% 30.12 1019.9
05 05:56 Calm 10.00 Overcast BKN020 OVC025 46 46 100% 30.12 1020.0
05 04:56 SE 3 1.00 Fog/Mist VV002 46 45 96% 30.12 1019.9
05 03:56 SE 3 6.00 Fog/Mist FEW013 46 46 51.1 45 100% 30.12 1020.0
05 02:56 E 3 10.00 Fair CLR 46.9 46.9 100% 30.13 1020.2
05 01:56 SE 5 5.00 Fog/Mist CLR 48 46.9 96% 47 30.12 1020.0
05 00:56 E 3 10.00 Fair CLR 48.9 48 97% 30.12 1019.9
04 23:56 Calm 10.00 Fair CLR 48 46.9 96% 30.12 1019.9
04 22:56 NE 3 10.00 Fair CLR 48 46.9 96% 30.12 1019.9
04 21:56 Calm 10.00 Fair CLR 48 46.9 66 48 96% 30.12 1019.7
04 20:56 Calm 10.00 Fair CLR 51.1 48.9 92% 30.1 1019.4
04 19:56 Calm 10.00 Fair CLR 55 51.1 87% 30.1 1019.2
04 18:56 Calm 10.00 Fair CLR 57.9 51.1 78% 30.09 1019.0
04 17:56 SW 7 10.00 Fair CLR 60.1 50 70% 30.09 1019.0
04 16:56 SW 10 10.00 Fair CLR 62.1 46.9 58% 30.09 1018.8
04 15:56 SW 10 10.00 Fair CLR 63 44.1 70 57.9 50% 30.1 1019.1
04 14:56 W 9 10.00 Fair CLR 69.1 41 36% 30.1 1019.2
04 13:56 S 6 10.00 Fair CLR 66.9 46.9 49% 30.11 1019.5
04 12:56 S 5 10.00 Fair CLR 64 48 56% 30.12 1019.9
04 11:56 SW 6 10.00 Fair CLR 62.1 46.9 58% 30.13 1020.1
04 10:56 Calm 10.00 Fair CLR 62.1 42.1 48% 30.13 1020.3
04 09:56 Calm 10.00 Fair CLR 57.9 44.1 57.9 37 60% 30.14 1020.5
04 08:56 Calm 10.00 Fair CLR 51.1 43 74% 30.14 1020.6
04 07:56 Calm 10.00 Fair CLR 43 39.9 89% 30.15 1020.9
04 06:56 Calm 10.00 Fair CLR 37.9 37 97% 30.15 1020.9
04 05:56 Calm 10.00 Fair CLR 37.9 36 93% 30.15 1020.8
04 04:56 Calm 10.00 Fair CLR 39 37 93% 30.14 1020.6
04 03:56 Calm 10.00 Fair CLR 39.9 37.9 50 37.9 93% 30.14 1020.7
04 02:56 N 3 10.00 Fair CLR 39 37.9 96% 30.14 1020.5
04 01:56 Calm 10.00 Fair CLR 42.1 39.9 92% 30.14 1020.5
04 00:56 Calm 10.00 Fair CLR 43 39.9 89% 30.14 1020.4
03 23:56 Calm 10.00 Fair CLR 45 42.1 90% 30.14 1020.5
03 22:56 N 3 10.00 Fair CLR 46 41 83% 30.13 1020.1
03 21:56 Calm 10.00 Fair CLR 50 44.1 69.1 48.9 80% 30.12 1020.0
03 20:56 Calm 10.00 Fair CLR 53.1 44.1 72% 30.11 1019.6
03 19:56 W 7 10.00 Fair CLR 59 43 56% 30.09 1019.0
03 18:56 NW 7 10.00 Fair CLR 64.9 37 36% 30.09 1018.9
03 17:56 NW 10 10.00 Fair CLR 66.9 37 33% 30.08 1018.5
03 16:56 NW 9 10.00 Fair CLR 69.1 37.9 32% 30.07 1018.2
03 15:56 NW 14 G 18 10.00 Fair CLR 69.1 37 69.1 61 31% 30.08 1018.5
Date Time (akdt) Wind (mph) Vis. (mi.) Weather Sky Cond. Air Dwpt Max. Min. Relative Humidity Wind Chill (°F) Heat Index (°F) altimeter (in) sea level (mb) 1 hr 3 hr 6 hr
6 hour
Temperature (ºF) Pressure Precipitation (in)